Flight Track Log - Related Links

Times and Time Zones

All times are in EDT time to prevent confusion due to time zone crossing. See the FLG4330 flight status page for this flight to view local times or setup timezone preferences in your user account.

Time Position Orientation Groundspeed Altitude Reporting Facility
EDT Latitude Longitude Course Direction KTS MPH feet Rate Location/Type
Fri 07:22:07 PM 41.9553 -91.8325 324° Northwest 200 230 7,400  Level Minneapolis Center
Fri 07:23:14 PM 42.0100 -91.8808 327° Northwest 234 269 10,000 1,907 Climbing Chicago Center
Fri 07:24:16 PM 42.0728 -91.9392 325° Northwest 268 308 11,500 1,790 Climbing Chicago Center
Fri 07:25:18 PM 42.1556 -92.0172 325° Northwest 300 345 13,700 1,839 Climbing Chicago Center
Fri 07:26:00 PM 42.2353 -92.0685 324° Northwest  Level FlightAware Approximate
Fri 07:26:20 PM 42.2269 -92.0842 325° Northwest 310 357 15,300  Level Chicago Center
Fri 07:27:22 PM 42.3011 -92.1544 325° Northwest 323 372 16,800 1,500 Climbing Chicago Center
Fri 07:28:24 PM 42.3764 -92.2250 325° Northwest 329 379 18,400 1,440 Climbing Chicago Center
Fri 07:29:27 PM 42.4511 -92.2958 325° Northwest 329 379 19,800 1,248 Climbing Chicago Center
Fri 07:30:29 PM 42.5267 -92.3686 325° Northwest 332 382 21,000 1,452 Climbing Chicago Center
Fri 07:31:31 PM 42.6158 -92.4533 325° Northwest 328 377 22,800 1,210 Climbing Chicago Center
Fri 07:32:33 PM 42.6911 -92.5211 327° Northwest 326 375 23,500 581 Climbing Chicago Center
Fri 07:33:35 PM 42.7686 -92.5922 326° Northwest 333 383 24,000 252 Climbing Chicago Center
Fri 07:34:32 PM 42.8489 -92.6675 326° Northwest 342 394 24,000  Level Minneapolis Center
Fri 07:35:39 PM 42.9286 -92.7411 326° Northwest 350 403 24,000  Level Chicago Center
Fri 07:36:41 PM 43.0272 -92.8303 327° Northwest 355 409 24,000  Level Chicago Center
Fri 07:37:43 PM 43.1278 -92.8636 346° North 367 422 24,000  Level Chicago Center
Fri 07:38:41 PM 43.2283 -92.8961 347° North 368 423 24,000  Level Minneapolis Center
Fri 07:39:43 PM 43.3286 -92.9278 347° North 369 425 24,000  Level Minneapolis Center
Fri 07:40:45 PM 43.4278 -92.9611 346° North 369 425 24,000  Level Minneapolis Center
Fri 07:41:47 PM 43.5281 -92.9914 348° North 369 425 24,000 -871 Level Minneapolis Center
Fri 07:42:49 PM 43.6275 -93.0236 347° North 369 425 22,200 -2,081 Descending Minneapolis Center
Fri 07:43:51 PM 43.7183 -93.0528 347° North 348 400 19,700 -2,806 Descending Minneapolis Center
Fri 07:44:53 PM 43.8239 -93.0878 347° North 341 392 16,400 -2,758 Descending Minneapolis Center
Fri 07:45:55 PM 43.9142 -93.1169 347° North 336 387 14,000 -2,274 Descending Minneapolis Center
Fri 07:46:57 PM 44.0042 -93.1472 346° North 330 380 11,700 -1,839 Descending Minneapolis Center
Fri 07:47:59 PM 44.0864 -93.1731 347° North 314 361 10,200 -823 Descending Minneapolis Center
Fri 07:49:01 PM 44.1642 -93.1989 347° North 288 331 10,000 -97 Descending Minneapolis Center
Fri 07:50:03 PM 44.2461 -93.2208 349° North 250 288 10,000 -48 Level Minneapolis Center
Fri 07:51:05 PM 44.3178 -93.2125 North 253 291 9,900 -968 Descending Minneapolis Center
Fri 07:52:07 PM 44.3861 -93.2092 North 252 290 8,000 -1,403 Descending Minneapolis Center
Fri 07:53:09 PM 44.4547 -93.2061 North 251 289 7,000 -484 Descending Minneapolis Center
Fri 07:54:11 PM 44.5228 -93.2028 North 247 284 7,000 -726 Level Minneapolis Center
Fri 07:55:13 PM 44.5900 -93.2003 North 246 283 5,500 -1,452 Descending Minneapolis Center
Fri 07:56:15 PM 44.6653 -93.1975 North 230 265 4,000 -726 Descending Minneapolis Center
Fri 07:57:17 PM 44.7161 -93.1956 North 191 220 4,000 -435 Level Minneapolis Center
Fri 07:58:19 PM 44.7600 -93.2097 347° North 176 203 3,100 -919 Descending Minneapolis Center
Fri 07:59:21 PM 44.8086 -93.2217 350° North 156 180 2,100 -823 Descending Minneapolis Center
Fri 08:00:23 PM 44.8439 -93.2311 349° North 135 155 1,400 -677 Descending Minneapolis Center
Fri 08:02:00 PM 44.8667 -93.2167 North  Level FlightAware Approximate

Login

Don't have an account? Register now (free) for customized features, flight alerts, and more!